createdAt,value
2023-03-07T00:02:51.592Z,56.27
2023-03-07T00:07:54.493Z,56.39
2023-03-07T00:12:58.635Z,56.57
2023-03-07T00:18:01.327Z,56.53
2023-03-07T00:23:04.831Z,56.66
2023-03-07T00:28:08.836Z,56.78
2023-03-07T00:33:11.595Z,56.86
2023-03-07T00:38:14.265Z,57.17
2023-03-07T00:43:18.397Z,57.32
2023-03-07T00:48:23.279Z,57.29
2023-03-07T00:53:26.614Z,57.43
2023-03-07T00:58:33.002Z,57.59
2023-03-07T01:03:36.327Z,57.52
2023-03-07T01:08:39.071Z,57.52
2023-03-07T01:13:43.426Z,57.71
2023-03-07T01:18:49.288Z,57.77
2023-03-07T01:23:52.479Z,57.95
2023-03-07T01:28:58.491Z,58.01
2023-03-07T01:34:02.300Z,58.17
2023-03-07T01:39:10.366Z,58.26
2023-03-07T01:44:19.639Z,58.36
2023-03-07T01:49:27.834Z,58.46
2023-03-07T01:54:38.082Z,58.46
2023-03-07T01:59:46.598Z,58.64
2023-03-07T02:04:54.852Z,58.67
2023-03-07T02:09:59.310Z,58.80
2023-03-07T02:15:04.999Z,58.77
2023-03-07T02:20:23.202Z,58.80
2023-03-07T02:25:33.702Z,58.89
2023-03-07T02:30:39.167Z,59.02
2023-03-07T02:35:42.106Z,59.15
2023-03-07T02:40:45.365Z,59.15
2023-03-07T02:45:49.464Z,59.30
2023-03-07T02:50:52.502Z,59.24
2023-03-07T02:55:55.385Z,59.19
2023-03-07T03:01:00.050Z,59.14
2023-03-07T03:06:02.799Z,59.25
2023-03-07T03:11:06.252Z,59.21
2023-03-07T03:16:12.714Z,59.24
2023-03-07T03:21:15.915Z,59.30
2023-03-07T03:26:18.813Z,59.52
2023-03-07T03:31:23.242Z,59.57
2023-03-07T03:36:27.373Z,59.60
2023-03-07T03:41:35.880Z,59.52
2023-03-07T03:46:40.117Z,59.48
2023-03-07T03:51:43.376Z,59.81
2023-03-07T03:56:46.420Z,59.53
2023-03-07T04:01:50.630Z,59.44
2023-03-07T04:06:54.921Z,59.47
2023-03-07T04:11:57.765Z,59.66
2023-03-07T04:17:01.921Z,59.80
2023-03-07T04:22:05.117Z,59.81
2023-03-07T04:27:08.287Z,59.73
2023-03-07T04:32:14.033Z,59.74
2023-03-07T04:37:16.937Z,59.70
2023-03-07T04:42:19.945Z,59.51
2023-03-07T04:47:24.048Z,59.40
2023-03-07T04:52:26.818Z,59.42
2023-03-07T04:57:30.967Z,59.41
2023-03-07T05:02:35.914Z,59.36
2023-03-07T05:07:39.244Z,59.29
2023-03-07T05:12:42.589Z,58.82
2023-03-07T05:17:48.802Z,58.89
2023-03-07T05:22:51.921Z,58.78
2023-03-07T05:27:54.817Z,58.56
2023-03-07T05:32:58.965Z,58.46
2023-03-07T05:38:02.057Z,58.45
2023-03-07T05:43:07.161Z,58.52
2023-03-07T05:48:12.111Z,58.59
2023-03-07T05:53:15.015Z,58.55
2023-03-07T05:58:17.871Z,58.51
2023-03-07T06:03:23.809Z,58.46
2023-03-07T06:08:26.699Z,58.10
2023-03-07T06:13:31.117Z,58.19
2023-03-07T06:18:35.298Z,58.28
2023-03-07T06:23:38.265Z,58.14
2023-03-07T06:28:46.192Z,58.11
2023-03-07T06:33:52.560Z,58.21
2023-03-07T06:38:56.302Z,58.12
2023-03-07T06:44:00.508Z,58.01
2023-03-07T06:49:07.749Z,58.04
2023-03-07T06:54:11.562Z,58.15
2023-03-07T06:59:15.893Z,58.12
2023-03-07T07:04:20.014Z,58.02
2023-03-07T07:09:24.413Z,58.05
2023-03-07T07:14:27.392Z,58.09
2023-03-07T07:19:31.876Z,58.15
2023-03-07T07:24:35.399Z,58.16
2023-03-07T07:29:38.166Z,58.04
2023-03-07T07:34:42.732Z,58.23
2023-03-07T07:39:45.996Z,58.09
2023-03-07T07:44:49.059Z,58.25
2023-03-07T07:49:53.448Z,58.10
2023-03-07T07:54:56.514Z,58.34
2023-03-07T08:00:00.303Z,58.32
2023-03-07T08:05:08.296Z,57.53
2023-03-07T08:10:15.649Z,57.61
2023-03-07T08:15:21.436Z,55.97
2023-03-07T08:20:25.672Z,47.56
2023-03-07T08:25:28.431Z,48.33
2023-03-07T08:30:33.393Z,49.17
2023-03-07T08:35:37.439Z,49.37
2023-03-07T08:40:40.415Z,49.77
2023-03-07T08:45:43.201Z,50.22
2023-03-07T08:50:48.168Z,50.65
2023-03-07T08:55:50.924Z,51.12
2023-03-07T09:00:53.753Z,51.66
2023-03-07T09:05:57.943Z,52.22
2023-03-07T09:11:03.400Z,52.45
2023-03-07T09:16:07.073Z,52.52
2023-03-07T09:21:11.142Z,52.72
2023-03-07T09:26:14.125Z,52.65
2023-03-07T09:31:17.582Z,52.86
2023-03-07T09:36:21.796Z,53.23
2023-03-07T09:41:43.650Z,53.20
2023-03-07T09:47:03.263Z,50.02
2023-03-07T09:52:15.125Z,52.88
2023-03-07T09:57:24.000Z,53.00
2023-03-07T10:02:30.575Z,53.10
2023-03-07T10:07:36.580Z,53.46
2023-03-07T10:13:02.797Z,53.65
2023-03-07T10:18:16.183Z,53.60
2023-03-07T10:23:33.029Z,53.75
2023-03-07T10:28:40.711Z,53.73
2023-03-07T10:33:47.414Z,53.76
2023-03-07T10:39:02.654Z,53.85
2023-03-07T10:44:05.507Z,53.75
2023-03-07T10:49:13.948Z,53.98
2023-03-07T10:54:22.045Z,54.30
2023-03-07T10:59:26.339Z,54.33
2023-03-07T11:04:43.372Z,54.43
2023-03-07T11:09:49.573Z,54.32
2023-03-07T11:14:54.867Z,54.48
2023-03-07T11:19:58.601Z,54.62
2023-03-07T11:25:07.580Z,54.78
2023-03-07T11:30:25.044Z,54.57
2023-03-07T11:35:47.326Z,54.67
2023-03-07T11:40:57.724Z,54.43
2023-03-07T11:46:08.196Z,54.22
2023-03-07T11:51:31.760Z,54.15
2023-03-07T11:56:40.638Z,54.07
2023-03-07T12:01:52.504Z,53.89
2023-03-07T12:07:12.116Z,53.63
2023-03-07T12:12:30.268Z,53.45
2023-03-07T12:17:47.750Z,53.14
2023-03-07T12:23:02.267Z,53.04
2023-03-07T12:28:18.723Z,52.80
2023-03-07T12:33:27.713Z,52.53
2023-03-07T12:38:39.829Z,52.44
2023-03-07T12:43:47.948Z,52.40
2023-03-07T12:48:59.908Z,52.20
2023-03-07T12:54:11.322Z,52.04
2023-03-07T12:59:16.952Z,52.08
2023-03-07T13:04:26.016Z,52.31
2023-03-07T13:09:32.247Z,52.33
2023-03-07T13:14:46.926Z,52.20
2023-03-07T13:19:54.977Z,52.39
2023-03-07T13:24:58.801Z,52.50
2023-03-07T13:30:19.872Z,52.79
2023-03-07T13:35:54.424Z,53.25
2023-03-07T13:40:58.907Z,53.90
2023-03-07T13:46:04.442Z,54.49
2023-03-07T13:51:09.188Z,54.83
2023-03-07T13:56:26.236Z,55.32
2023-03-07T14:01:36.361Z,56.03
2023-03-07T14:06:42.614Z,55.98
2023-03-07T14:11:54.438Z,56.01
2023-03-07T14:17:09.383Z,55.95
2023-03-07T14:22:23.275Z,56.25
2023-03-07T14:27:26.160Z,56.48
2023-03-07T14:32:32.137Z,56.41
2023-03-07T14:37:34.877Z,56.42
2023-03-07T14:42:46.110Z,56.38
2023-03-07T14:48:13.139Z,55.83
2023-03-07T14:53:21.181Z,55.85
2023-03-07T14:58:27.197Z,56.06
2023-03-07T15:03:32.544Z,56.30
2023-03-07T15:08:38.349Z,56.48
2023-03-07T15:13:45.807Z,56.60
2023-03-07T15:18:54.404Z,57.00
2023-03-07T15:23:59.224Z,57.63
2023-03-07T15:29:06.302Z,57.66
2023-03-07T15:34:24.380Z,58.06
2023-03-07T15:39:34.533Z,58.29
2023-03-07T15:44:38.173Z,58.11
2023-03-07T15:49:45.994Z,58.35
2023-03-07T15:54:52.571Z,58.43
2023-03-07T15:59:59.200Z,58.75
2023-03-07T16:05:04.803Z,58.68
2023-03-07T16:10:08.170Z,58.47
2023-03-07T16:15:14.644Z,58.35
2023-03-07T16:20:21.251Z,58.15
2023-03-07T16:25:27.453Z,58.14
2023-03-07T16:30:30.512Z,58.33
2023-03-07T16:35:35.381Z,58.04
2023-03-07T16:40:42.182Z,58.18
2023-03-07T16:45:44.971Z,58.21
2023-03-07T16:50:49.033Z,58.24
2023-03-07T16:55:52.305Z,57.84
2023-03-07T17:00:55.903Z,58.00
2023-03-07T17:06:00.408Z,58.42
2023-03-07T17:11:03.549Z,58.55
2023-03-07T17:16:06.633Z,58.43
2023-03-07T17:21:13.778Z,58.31
2023-03-07T17:26:29.686Z,57.99
2023-03-07T17:31:32.507Z,58.10
2023-03-07T17:36:36.620Z,57.84
2023-03-07T17:41:39.394Z,57.71
2023-03-07T17:46:42.135Z,57.54
2023-03-07T17:51:46.687Z,56.83
2023-03-07T17:56:49.373Z,56.49
2023-03-07T18:01:52.145Z,55.69
2023-03-07T18:06:56.322Z,55.42
2023-03-07T18:11:59.145Z,55.01
2023-03-07T18:17:01.847Z,54.58
2023-03-07T18:22:06.261Z,54.48
2023-03-07T18:27:10.052Z,54.26
2023-03-07T18:32:13.081Z,54.35
2023-03-07T18:37:17.384Z,54.28
2023-03-07T18:42:20.094Z,54.08
2023-03-07T18:47:22.756Z,53.89
2023-03-07T18:52:26.800Z,54.03
2023-03-07T18:57:29.486Z,54.23
2023-03-07T19:02:32.408Z,54.24
2023-03-07T19:07:36.572Z,54.53
2023-03-07T19:12:39.355Z,54.53
2023-03-07T19:17:42.462Z,54.48
2023-03-07T19:22:46.491Z,54.64
2023-03-07T19:27:49.330Z,54.36
2023-03-07T19:32:52.025Z,54.28
2023-03-07T19:37:56.082Z,54.37
2023-03-07T19:42:58.983Z,54.24
2023-03-07T19:48:01.857Z,54.08
2023-03-07T19:53:06.097Z,54.11
2023-03-07T19:58:08.895Z,53.93
2023-03-07T20:03:13.987Z,54.00
2023-03-07T20:08:18.041Z,53.92
2023-03-07T20:13:21.015Z,53.87
2023-03-07T20:18:23.657Z,53.94
2023-03-07T20:23:27.679Z,53.98
2023-03-07T20:28:30.359Z,54.10
2023-03-07T20:33:33.072Z,54.12
2023-03-07T20:38:38.350Z,54.09
2023-03-07T20:43:41.689Z,54.03
2023-03-07T20:48:44.826Z,54.14
2023-03-07T20:53:51.019Z,54.20
2023-03-07T20:58:54.786Z,54.46
2023-03-07T21:04:03.871Z,54.40
2023-03-07T21:09:10.095Z,54.34
2023-03-07T21:14:13.284Z,54.95
2023-03-07T21:19:16.324Z,53.45
2023-03-07T21:24:20.393Z,53.93
2023-03-07T21:29:23.049Z,54.19
2023-03-07T21:34:25.928Z,54.17
2023-03-07T21:39:29.986Z,54.18
2023-03-07T21:44:33.053Z,54.19
2023-03-07T21:49:35.836Z,54.25
2023-03-07T21:54:39.881Z,54.54
2023-03-07T21:59:42.685Z,54.49
2023-03-07T22:04:45.335Z,54.61
2023-03-07T22:09:49.411Z,54.73
2023-03-07T22:14:52.140Z,54.67
2023-03-07T22:19:54.847Z,54.88
2023-03-07T22:24:58.908Z,54.89
2023-03-07T22:30:01.614Z,55.15
2023-03-07T22:35:04.924Z,55.30
2023-03-07T22:40:11.482Z,55.36
2023-03-07T22:45:14.594Z,55.38
2023-03-07T22:50:17.955Z,55.40
2023-03-07T22:55:21.994Z,55.67
2023-03-07T23:00:25.510Z,55.84
2023-03-07T23:05:28.349Z,55.71
2023-03-07T23:10:32.593Z,56.64
2023-03-07T23:15:35.376Z,56.59
2023-03-07T23:20:38.799Z,56.70
2023-03-07T23:25:43.530Z,56.59
2023-03-07T23:30:46.311Z,56.62
2023-03-07T23:35:49.107Z,56.68
2023-03-07T23:40:53.340Z,56.54
2023-03-07T23:45:56.274Z,56.60
2023-03-07T23:50:59.067Z,56.70
2023-03-07T23:56:05.911Z,56.47
